<?xml version="1.0" encoding="UTF-8"?><gpx xmlns="http://www.topografix.com/GPX/1/1" version="1.1" creator="iOrient"><trk><name>Нижегородский вело-рогейн - 2017</name><trkseg><trkpt lat="56.2428330" lon="43.9521090"><time>2017-06-24T08:59:22.750</time></trkpt><trkpt lat="56.2428680" lon="43.9522540"><time>2017-06-24T09:00:32.767</time></trkpt><trkpt lat="56.2428690" lon="43.9522540"><time>2017-06-24T09:01:40.910</time></trkpt><trkpt lat="56.2430680" lon="43.9521190"><time>2017-06-24T09:03:32.770</time></trkpt><trkpt lat="56.2429630" lon="43.9519000"><time>2017-06-24T09:05:32.770</time></trkpt><trkpt lat="56.2428840" lon="43.9516060"><time>2017-06-24T09:13:18.040</time></trkpt><trkpt lat="56.2428840" lon="43.9516060"><time>2017-06-24T09:14:26.397</time></trkpt><trkpt lat="56.2428840" lon="43.9516060"><time>2017-06-24T09:22:19.297</time></trkpt><trkpt lat="56.2428840" lon="43.9516060"><time>2017-06-24T09:23:32.777</time></trkpt><trkpt lat="56.2386800" lon="43.9488510"><time>2017-06-24T09:25:05.693</time></trkpt><trkpt lat="56.2381260" lon="43.9490600"><time>2017-06-24T09:26:42.727</time></trkpt><trkpt lat="56.2381260" lon="43.9490600"><time>2017-06-24T09:29:14.243</time></trkpt><trkpt lat="56.2381260" lon="43.9490600"><time>2017-06-24T09:31:32.200</time></trkpt><trkpt lat="56.2381260" lon="43.9490600"><time>2017-06-24T09:36:29.207</time></trkpt><trkpt lat="56.2317110" lon="43.9329980"><time>2017-06-24T09:42:42.013</time></trkpt><trkpt lat="56.2317770" lon="43.9329930"><time>2017-06-24T09:42:47.730</time></trkpt><trkpt lat="56.2314810" lon="43.9328800"><time>2017-06-24T09:43:22.147</time></trkpt><trkpt lat="56.2312410" lon="43.9327700"><time>2017-06-24T09:43:32.853</time></trkpt><trkpt lat="56.2310040" lon="43.9326730"><time>2017-06-24T09:43:43.147</time></trkpt><trkpt lat="56.2307560" lon="43.9326350"><time>2017-06-24T09:43:53.180</time></trkpt><trkpt lat="56.2305440" lon="43.9324930"><time>2017-06-24T09:44:01.850</time></trkpt><trkpt lat="56.2303940" lon="43.9324830"><time>2017-06-24T09:48:07.600</time></trkpt><trkpt lat="56.2303940" lon="43.9324830"><time>2017-06-24T09:50:33.637</time></trkpt><trkpt lat="56.2303940" lon="43.9324830"><time>2017-06-24T09:55:13.307</time></trkpt><trkpt lat="56.2303940" lon="43.9324830"><time>2017-06-24T09:56:51.537</time></trkpt><trkpt lat="56.2303940" lon="43.9324830"><time>2017-06-24T10:00:51.060</time></trkpt><trkpt lat="56.2303940" lon="43.9324830"><time>2017-06-24T10:04:24.197</time></trkpt><trkpt lat="56.2303940" lon="43.9324830"><time>2017-06-24T10:05:32.767</time></trkpt><trkpt lat="56.2303940" lon="43.9324830"><time>2017-06-24T10:09:50.480</time></trkpt><trkpt lat="56.2303940" lon="43.9324830"><time>2017-06-24T10:14:37.910</time></trkpt><trkpt lat="56.2303940" lon="43.9324830"><time>2017-06-24T10:18:03.863</time></trkpt><trkpt lat="56.2303940" lon="43.9324830"><time>2017-06-24T10:20:02.880</time></trkpt><trkpt lat="56.2303940" lon="43.9324830"><time>2017-06-24T10:22:54.293</time></trkpt><trkpt lat="56.2303940" lon="43.9324830"><time>2017-06-24T10:24:41.387</time></trkpt><trkpt lat="56.2303940" lon="43.9324830"><time>2017-06-24T10:32:12.890</time></trkpt><trkpt lat="56.2303940" lon="43.9324830"><time>2017-06-24T10:32:14.487</time></trkpt><trkpt lat="56.2303940" lon="43.9324830"><time>2017-06-24T10:40:20.237</time></trkpt><trkpt lat="56.2303940" lon="43.9324830"><time>2017-06-24T10:41:21.130</time></trkpt><trkpt lat="56.2303940" lon="43.9324830"><time>2017-06-24T10:46:26.223</time></trkpt><trkpt lat="56.2303940" lon="43.9324830"><time>2017-06-24T10:50:13.520</time></trkpt><trkpt lat="56.2303940" lon="43.9324830"><time>2017-06-24T10:52:22.107</time></trkpt><trkpt lat="56.2303940" lon="43.9324830"><time>2017-06-24T10:56:41.933</time></trkpt><trkpt lat="56.2303940" lon="43.9324830"><time>2017-06-24T11:01:06.807</time></trkpt><trkpt lat="56.2303940" lon="43.9324830"><time>2017-06-24T11:01:09.283</time></trkpt><trkpt lat="56.2441480" lon="43.9995340"><time>2017-06-24T11:01:11.747</time></trkpt><trkpt lat="56.2443170" lon="43.9992590"><time>2017-06-24T11:02:07.120</time></trkpt><trkpt lat="56.2445540" lon="43.9992490"><time>2017-06-24T11:02:24.120</time></trkpt><trkpt lat="56.2447870" lon="43.9992120"><time>2017-06-24T11:02:34.117</time></trkpt><trkpt lat="56.2449870" lon="43.9992970"><time>2017-06-24T11:05:02.100</time></trkpt><trkpt lat="56.2449870" lon="43.9992970"><time>2017-06-24T11:07:47.867</time></trkpt><trkpt lat="56.2449870" lon="43.9992970"><time>2017-06-24T11:13:43.107</time></trkpt><trkpt lat="56.2449870" lon="43.9992970"><time>2017-06-24T11:23:55.560</time></trkpt><trkpt lat="56.2449870" lon="43.9992970"><time>2017-06-24T11:28:05.357</time></trkpt><trkpt lat="56.2449870" lon="43.9992970"><time>2017-06-24T11:29:35.627</time></trkpt><trkpt lat="56.2449870" lon="43.9992970"><time>2017-06-24T11:33:17.617</time></trkpt><trkpt lat="56.2449870" lon="43.9992970"><time>2017-06-24T11:37:13.970</time></trkpt><trkpt lat="56.2449870" lon="43.9992970"><time>2017-06-24T11:38:40.120</time></trkpt><trkpt lat="56.2449870" lon="43.9992970"><time>2017-06-24T11:38:50.220</time></trkpt><trkpt lat="56.2449870" lon="43.9992970"><time>2017-06-24T11:42:48.897</time></trkpt><trkpt lat="56.2449870" lon="43.9992970"><time>2017-06-24T11:46:38.647</time></trkpt><trkpt lat="56.2449870" lon="43.9992970"><time>2017-06-24T11:55:48.557</time></trkpt><trkpt lat="56.2449870" lon="43.9992970"><time>2017-06-24T12:02:59.733</time></trkpt><trkpt lat="56.2514110" lon="44.0328570"><time>2017-06-24T12:04:20.397</time></trkpt><trkpt lat="56.2513840" lon="44.0326960"><time>2017-06-24T12:09:42.997</time></trkpt><trkpt lat="56.2513840" lon="44.0326960"><time>2017-06-24T12:14:11.990</time></trkpt><trkpt lat="56.2513840" lon="44.0326960"><time>2017-06-24T12:15:21.057</time></trkpt><trkpt lat="56.2513840" lon="44.0326960"><time>2017-06-24T12:15:23.473</time></trkpt><trkpt lat="56.2542360" lon="44.0192490"><time>2017-06-24T12:15:23.743</time></trkpt><trkpt lat="56.2541060" lon="44.0198950"><time>2017-06-24T12:15:26.803</time></trkpt><trkpt lat="56.2540260" lon="44.0194990"><time>2017-06-24T12:15:35.817</time></trkpt><trkpt lat="56.2540020" lon="44.0193040"><time>2017-06-24T12:16:38.280</time></trkpt><trkpt lat="56.2540020" lon="44.0193040"><time>2017-06-24T12:19:54.827</time></trkpt><trkpt lat="56.2540020" lon="44.0193040"><time>2017-06-24T12:22:33.667</time></trkpt><trkpt lat="56.2540020" lon="44.0193040"><time>2017-06-24T12:28:50.193</time></trkpt><trkpt lat="56.2664040" lon="44.0238190"><time>2017-06-24T12:30:54.580</time></trkpt><trkpt lat="56.2664040" lon="44.0238190"><time>2017-06-24T12:36:25.520</time></trkpt><trkpt lat="56.2664040" lon="44.0238190"><time>2017-06-24T12:37:46.860</time></trkpt><trkpt lat="56.2682330" lon="44.0306000"><time>2017-06-24T12:39:45.133</time></trkpt><trkpt lat="56.2680350" lon="44.0307910"><time>2017-06-24T12:39:46.970</time></trkpt><trkpt lat="56.2680210" lon="44.0307960"><time>2017-06-24T12:39:48.713</time></trkpt><trkpt lat="56.2680050" lon="44.0309330"><time>2017-06-24T12:43:34.280</time></trkpt><trkpt lat="56.2680050" lon="44.0309330"><time>2017-06-24T12:52:07.007</time></trkpt><trkpt lat="56.2680050" lon="44.0309330"><time>2017-06-24T12:54:52.727</time></trkpt><trkpt lat="56.2680050" lon="44.0309330"><time>2017-06-24T12:59:33.240</time></trkpt><trkpt lat="56.2680050" lon="44.0309330"><time>2017-06-24T13:07:25.653</time></trkpt><trkpt lat="56.2680050" lon="44.0309330"><time>2017-06-24T13:13:21.280</time></trkpt><trkpt lat="56.2680050" lon="44.0309330"><time>2017-06-24T13:15:30.807</time></trkpt><trkpt lat="56.2680050" lon="44.0309330"><time>2017-06-24T13:17:12.430</time></trkpt><trkpt lat="56.2722570" lon="44.0032300"><time>2017-06-24T13:17:16.747</time></trkpt><trkpt lat="56.2721310" lon="44.0031670"><time>2017-06-24T13:18:36.550</time></trkpt><trkpt lat="56.2721310" lon="44.0031670"><time>2017-06-24T13:22:15.733</time></trkpt><trkpt lat="56.2708430" lon="44.0023720"><time>2017-06-24T13:23:32.770</time></trkpt><trkpt lat="56.2701860" lon="43.9992100"><time>2017-06-24T13:25:32.767</time></trkpt><trkpt lat="56.2700800" lon="43.9978640"><time>2017-06-24T13:26:32.807</time></trkpt><trkpt lat="56.2700010" lon="43.9969700"><time>2017-06-24T13:29:16.637</time></trkpt><trkpt lat="56.2700010" lon="43.9969700"><time>2017-06-24T13:32:12.203</time></trkpt><trkpt lat="56.2700010" lon="43.9969700"><time>2017-06-24T13:35:29.433</time></trkpt><trkpt lat="56.2700010" lon="43.9969700"><time>2017-06-24T13:43:17.760</time></trkpt><trkpt lat="56.2700010" lon="43.9969700"><time>2017-06-24T13:44:28.280</time></trkpt><trkpt lat="56.2700010" lon="43.9969700"><time>2017-06-24T13:52:52.137</time></trkpt><trkpt lat="56.2700010" lon="43.9969700"><time>2017-06-24T13:54:41.010</time></trkpt></trkseg></trk></gpx>